Flight Track Log - Related Links

Times and Time Zones

All times are in EDT time to prevent confusion due to time zone crossing. See the N988QC flight status page for this flight to view local times or setup timezone preferences in your user account.

Time Position Orientation Groundspeed Altitude Reporting Facility
EDT Latitude Longitude Course Direction KTS MPH feet Rate Location/Type
Tue 09:34:40 PM 32.3667 -64.6833 343° North 201 231 13,000  Level New York Oceanic (ODAPS)
Tue 09:35:00 PM 33.1666 -65.1363 335° Northwest  Level Estimated
Tue 09:36:00 PM 33.2656 -65.1934 334° Northwest  Level Estimated
Tue 09:37:00 PM 33.3646 -65.2506 334° Northwest  Level Estimated
Tue 09:38:00 PM 33.4635 -65.3079 334° Northwest  Level Estimated
Tue 09:39:00 PM 33.5624 -65.3654 334° Northwest  Level Estimated
Tue 09:39:59 PM 32.3667 -64.6833 343° North 386 444 25,000  Level New York Oceanic (ODAPS)
Tue 09:40:00 PM 32.8057 -64.8409 344° North 201 231 13,000 -11,803 Descending FlightAware Transoceanic
Tue 09:41:00 PM 32.9280 -64.8819 344° North 201 231 13,000  Level FlightAware Transoceanic
Tue 09:42:00 PM 33.0504 -64.9230 344° North 201 231 13,000  Level FlightAware Transoceanic
Tue 09:43:00 PM 33.1727 -64.9642 344° North 201 231 13,000  Level FlightAware Transoceanic
Tue 09:44:00 PM 33.2950 -65.0055 344° North 201 231 13,000 15,000 Level FlightAware Transoceanic
Tue 09:44:12 PM 32.3667 -64.6833 343° North 386 444 31,000  Climbing New York Oceanic (ODAPS)
Tue 09:45:00 PM 33.4173 -65.0470 344° North 201 231 13,000 -3,333 Descending FlightAware Transoceanic
Tue 09:46:00 PM 33.7108 -65.1470 344° North 386 444 25,000 6,000 Climbing FlightAware Transoceanic
Tue 09:47:00 PM 33.8134 -65.1821 344° North 386 444 25,000  Level FlightAware Transoceanic
Tue 09:48:00 PM 33.9161 -65.2173 344° North 386 444 25,000 6,226 Level FlightAware Transoceanic
Tue 09:48:46 PM 32.3667 -64.6833 343° North 386 444 36,000  Climbing New York Oceanic (ODAPS)
Tue 09:49:00 PM 34.0188 -65.2527 344° North 386 444 25,000 -4,054 Descending FlightAware Transoceanic
Tue 09:50:00 PM 34.1214 -65.2881 344° North 386 444 31,000 3,000 Climbing FlightAware Transoceanic
Tue 09:51:00 PM 34.2241 -65.3236 344° North 386 444 31,000  Level FlightAware Transoceanic
Tue 09:52:00 PM 34.3267 -65.3592 344° North 386 444 31,000  Level FlightAware Transoceanic
Tue 09:53:00 PM 34.4294 -65.3948 344° North 386 444 31,000  Level FlightAware Transoceanic
Tue 09:54:00 PM 34.5320 -65.4306 344° North 386 444 31,000 2,500 Level FlightAware Transoceanic
Tue 09:55:00 PM 34.6346 -65.4664 344° North 386 444 36,000 2,500 Climbing FlightAware Transoceanic
Tue 09:56:00 PM 34.7372 -65.5023 344° North 386 444 36,000  Level FlightAware Transoceanic
Tue 09:57:00 PM 34.8398 -65.5384 344° North 386 444 36,000  Level FlightAware Transoceanic
Tue 09:58:00 PM 34.9423 -65.5745 344° North 386 444 36,000  Level FlightAware Transoceanic
Tue 09:58:03 PM 35.2500 -65.6833 338° Northwest 441 507 36,000  Level New York Oceanic (ODAPS)
Tue 09:59:00 PM 35.0449 -65.6107 344° North 386 444 36,000  Level FlightAware Transoceanic
Tue 10:00:00 PM 35.1475 -65.6469 344° North 386 444 36,000  Level FlightAware Transoceanic
Tue 10:01:00 PM 32.9202 -64.8679 344° North  Level FlightAware Approximate
Tue 10:02:00 PM 33.0261 -64.9031 344° North  Level FlightAware Approximate
Tue 10:03:00 PM 33.1315 -64.9397 340° North  Level FlightAware Approximate
Tue 10:04:00 PM 35.8196 -65.9660 338° Northwest 441 507 36,000  Level FlightAware Transoceanic
Tue 10:05:00 PM 35.9335 -66.0230 338° Northwest 441 507 36,000  Level FlightAware Transoceanic
Tue 10:06:00 PM 36.0473 -66.0802 338° Northwest 441 507 36,000  Level FlightAware Transoceanic
Tue 10:07:00 PM 36.1611 -66.1376 338° Northwest 441 507 36,000  Level FlightAware Transoceanic
Tue 10:08:00 PM 36.2748 -66.1951 338° Northwest 441 507 36,000  Level FlightAware Transoceanic
Tue 10:09:00 PM 36.3886 -66.2527 338° Northwest 441 507 36,000  Level FlightAware Transoceanic
Tue 10:10:00 PM 36.5023 -66.3106 338° Northwest 441 507 36,000  Level FlightAware Transoceanic
Tue 10:11:00 PM 36.6160 -66.3686 338° Northwest 441 507 36,000  Level FlightAware Transoceanic
Tue 10:12:00 PM 36.7296 -66.4268 338° Northwest 441 507 36,000  Level FlightAware Transoceanic
Tue 10:13:00 PM 36.8432 -66.4852 338° Northwest 441 507 36,000  Level FlightAware Transoceanic
Tue 10:14:00 PM 36.9568 -66.5437 338° Northwest 441 507 36,000  Level FlightAware Transoceanic
Tue 10:15:00 PM 37.0704 -66.6024 338° Northwest 441 507 36,000  Level FlightAware Transoceanic
Tue 10:16:00 PM 37.1839 -66.6613 338° Northwest 441 507 36,000  Level FlightAware Transoceanic
Tue 10:17:00 PM 37.2974 -66.7204 337° Northwest 441 507 36,000  Level FlightAware Transoceanic
Tue 10:18:00 PM 37.4109 -66.7796 337° Northwest 441 507 36,000  Level FlightAware Transoceanic
Tue 10:19:00 PM 37.5243 -66.8391 337° Northwest 441 507 36,000  Level FlightAware Transoceanic
Tue 10:20:00 PM 37.6378 -66.8987 337° Northwest 441 507 36,000  Level FlightAware Transoceanic
Tue 10:21:00 PM 37.7512 -66.9585 337° Northwest 441 507 36,000  Level FlightAware Transoceanic
Tue 10:22:00 PM 37.8645 -67.0184 337° Northwest 441 507 36,000  Level FlightAware Transoceanic
Tue 10:23:00 PM 37.9778 -67.0786 337° Northwest 441 507 36,000  Level FlightAware Transoceanic
Tue 10:24:00 PM 38.0911 -67.1389 337° Northwest 441 507 36,000  Level FlightAware Transoceanic
Tue 10:25:00 PM 38.2044 -67.1995 337° Northwest 441 507 36,000  Level FlightAware Transoceanic
Tue 10:26:00 PM 38.3176 -67.2602 337° Northwest 441 507 36,000  Level FlightAware Transoceanic
Tue 10:27:00 PM 38.4308 -67.3211 337° Northwest 441 507 36,000  Level FlightAware Transoceanic
Tue 10:28:00 PM 38.5440 -67.3822 337° Northwest 441 507 36,000  Level FlightAware Transoceanic
Tue 10:29:00 PM 38.6572 -67.4435 337° Northwest 441 507 36,000  Level FlightAware Transoceanic
Tue 10:30:00 PM 38.7703 -67.5050 337° Northwest 441 507 36,000  Level FlightAware Transoceanic
Tue 10:30:19 PM 38.7050 -67.4867 336° Northwest 449 517 36,000  Level New York Center
Tue 10:31:00 PM 38.8833 -67.5667 337° Northwest 441 507 36,000  Level FlightAware Transoceanic
Tue 10:31:18 PM 38.8089 -67.5486 335° Northwest 436 502 36,000  Level New York Center
Tue 10:32:00 PM 38.9952 -67.6291 337° Northwest 441 507 36,000  Level FlightAware Transoceanic
Tue 10:32:18 PM 38.9147 -67.6081 336° Northwest 418 481 36,000  Level New York Center
Tue 10:33:00 PM 39.1069 -67.6917 336° Northwest 441 507 36,000  Level FlightAware Transoceanic
Tue 10:33:22 PM 39.0047 -67.7003 321° Northwest 418 481 36,000  Level New York Center
Tue 10:34:00 PM 39.2187 -67.7545 336° Northwest 441 507 36,000  Level FlightAware Transoceanic
Tue 10:34:18 PM 39.0986 -67.7847 325° Northwest 412 474 36,000  Level New York Center
Tue 10:35:18 PM 39.1883 -67.8722 323° Northwest 412 474 36,000  Level New York Center
Tue 10:36:17 PM 39.2781 -67.9597 323° Northwest 412 474 36,000  Level New York Center
Tue 10:37:18 PM 39.3697 -68.0478 323° Northwest 406 467 36,000  Level New York Center
Tue 10:38:17 PM 39.4553 -68.1439 319° Northwest 406 467 36,000  Level New York Center
Tue 10:39:17 PM 39.5486 -68.2267 326° Northwest 406 467 36,000  Level New York Center
Tue 10:40:17 PM 39.6381 -68.3153 323° Northwest 401 461 36,000  Level New York Center
Tue 10:41:18 PM 39.7275 -68.4094 321° Northwest 401 461 36,000  Level New York Center
Tue 10:42:17 PM 39.8167 -68.4983 323° Northwest 401 461 36,000  Level New York Center
Tue 10:43:17 PM 39.9078 -68.5794 326° Northwest 406 467 36,000  Level New York Center
Tue 10:44:19 PM 39.9950 -68.6742 320° Northwest 406 467 36,000  Level New York Center
Tue 10:45:17 PM 40.0839 -68.7639 322° Northwest 401 461 36,000  Level New York Center
Tue 10:46:17 PM 40.1728 -68.8539 322° Northwest 401 461 36,000  Level New York Center
Tue 10:47:18 PM 40.2619 -68.9439 322° Northwest 401 461 36,000  Level New York Center
Tue 10:48:56 PM 40.4061 -69.0933 322° Northwest 409 471 36,000  Level Boston Center
Tue 10:49:56 PM 40.4942 -69.1789 324° Northwest 404 465 36,000  Level Boston Center
Tue 10:50:56 PM 40.5800 -69.2703 321° Northwest 404 465 36,000  Level Boston Center
Tue 10:51:56 PM 40.6681 -69.3589 323° Northwest 404 465 36,000  Level Boston Center
Tue 10:52:56 PM 40.7539 -69.4536 320° Northwest 404 465 36,000  Level Boston Center
Tue 10:53:56 PM 40.8417 -69.5428 322° Northwest 404 465 36,000  Level Boston Center
Tue 10:54:56 PM 40.9275 -69.6325 322° Northwest 404 465 36,000 -250 Level Boston Center
Tue 10:55:56 PM 41.0131 -69.7222 322° Northwest 404 465 35,500 -1,350 Descending Boston Center
Tue 10:56:56 PM 41.1028 -69.8150 322° Northwest 404 465 33,300 -2,300 Descending Boston Center
Tue 10:57:56 PM 41.1925 -69.9106 321° Northwest 404 465 30,900 -2,400 Descending Boston Center
Tue 10:58:56 PM 41.2756 -69.9928 323° Northwest 394 453 28,500 -2,650 Descending Boston Center
Tue 10:59:56 PM 41.3608 -70.0836 321° Northwest 389 448 25,600 -2,600 Descending Boston Center
Tue 11:00:56 PM 41.4481 -70.1747 322° Northwest 389 448 23,300 -2,300 Descending Boston Center
Tue 11:01:56 PM 41.5250 -70.2606 320° Northwest 380 437 21,000 -2,300 Descending Boston Center
Tue 11:02:56 PM 41.6100 -70.3522 321° Northwest 385 443 18,700 -2,300 Descending Boston Center
Tue 11:03:56 PM 41.6867 -70.4358 321° Northwest 380 437 16,400 -2,350 Descending Boston Center
Tue 11:04:56 PM 41.7589 -70.5142 321° Northwest 358 412 14,000 -2,552 Descending Boston Center
Tue 11:05:23 PM 41.8000 -70.5500 327° Northwest 326 375 12,700 -1,742 Descending KA90
Tue 11:06:29 PM 41.8667 -70.6333 317° Northwest 314 361 11,300 -1,032 Descending KA90
Tue 11:06:56 PM 41.8944 -70.6581 326° Northwest 323 372 11,100 -207 Descending Boston Center
Tue 11:07:56 PM 41.9625 -70.7342 320° Northwest 317 365 11,000 -50 Descending Boston Center
Tue 11:08:56 PM 42.0344 -70.8106 322° Northwest 307 353 11,000  Level Boston Center
Tue 11:09:56 PM 42.0958 -70.8789 320° Northwest 294 338 11,000 -483 Level Boston Center
Tue 11:10:23 PM 42.1333 -70.9167 323° Northwest 297 342 10,300 -2,114 Descending KA90
Tue 11:11:24 PM 42.1833 -70.9667 323° Northwest 266 306 7,900 -2,476 Descending KA90
Tue 11:12:29 PM 42.2500 -71.0333 323° Northwest 262 302 5,100 -1,965 Descending KA90
Tue 11:13:17 PM 42.2833 -71.0833 312° West 244 281 4,200 -1,152 Descending KA90
Tue 11:14:08 PM 42.3178 -71.1261 317° Northwest 229 264 3,200 -919 Descending Boston Center
Tue 11:15:08 PM 42.3683 -71.1672 329° Northwest 198 228 2,500 -500 Descending Boston Center
Tue 11:16:08 PM 42.4017 -71.1833 340° North 161 185 2,200 -253 Descending Boston Center
Tue 11:16:43 PM 42.4333 -71.2000 339° North 145 167 2,100 -558 Descending KA90
Tue 11:17:34 PM 42.4500 -71.2167 324° Northwest 121 139 1,400 -821 Descending KA90
Tue 11:18:40 PM 42.4667 -71.2500 304° West 123 142 500 -818 Descending KA90

Login

Don't have an account? Register now (free) for customized features, flight alerts, and more!